sensor_id;sensor_type;location;lat;lon;timestamp;P1;durP1;ratioP1;P2;durP2;ratioP2
14961;SDS011;56489;53.166;10.864;2022-10-31T00:01:01;8.85;;;7.93;;
14961;SDS011;56489;53.166;10.864;2022-10-31T00:03:36;7.93;;;7.07;;
14961;SDS011;56489;53.166;10.864;2022-10-31T00:06:03;8.15;;;7.28;;
14961;SDS011;56489;53.166;10.864;2022-10-31T00:08:30;7.88;;;7.05;;
14961;SDS011;56489;53.166;10.864;2022-10-31T00:10:57;10.88;;;6.93;;
14961;SDS011;56489;53.166;10.864;2022-10-31T00:13:23;8.85;;;6.97;;
14961;SDS011;56489;53.166;10.864;2022-10-31T00:15:50;7.45;;;6.75;;
14961;SDS011;56489;53.166;10.864;2022-10-31T00:18:17;7.63;;;6.88;;
14961;SDS011;56489;53.166;10.864;2022-10-31T00:20:44;9.25;;;6.63;;
14961;SDS011;56489;53.166;10.864;2022-10-31T00:23:11;7.93;;;7.15;;
14961;SDS011;56489;53.166;10.864;2022-10-31T00:25:38;8.07;;;7.05;;
14961;SDS011;56489;53.166;10.864;2022-10-31T00:28:06;8.57;;;6.70;;
14961;SDS011;56489;53.166;10.864;2022-10-31T00:30:35;8.40;;;7.50;;
14961;SDS011;56489;53.166;10.864;2022-10-31T00:33:03;8.75;;;7.15;;
14961;SDS011;56489;53.166;10.864;2022-10-31T00:35:31;7.80;;;7.00;;
14961;SDS011;56489;53.166;10.864;2022-10-31T00:37:58;6.97;;;5.95;;
14961;SDS011;56489;53.166;10.864;2022-10-31T00:40:25;7.05;;;6.35;;
14961;SDS011;56489;53.166;10.864;2022-10-31T00:42:53;8.25;;;6.57;;
14961;SDS011;56489;53.166;10.864;2022-10-31T00:45:20;8.10;;;6.43;;
14961;SDS011;56489;53.166;10.864;2022-10-31T00:47:46;8.20;;;6.47;;
14961;SDS011;56489;53.166;10.864;2022-10-31T00:50:13;7.28;;;6.57;;
14961;SDS011;56489;53.166;10.864;2022-10-31T00:52:40;6.50;;;5.90;;
14961;SDS011;56489;53.166;10.864;2022-10-31T00:55:07;7.20;;;6.50;;
14961;SDS011;56489;53.166;10.864;2022-10-31T00:57:34;8.15;;;6.55;;
14961;SDS011;56489;53.166;10.864;2022-10-31T01:00:00;10.43;;;6.68;;
14961;SDS011;56489;53.166;10.864;2022-10-31T01:02:27;7.53;;;6.82;;
14961;SDS011;56489;53.166;10.864;2022-10-31T01:04:54;9.63;;;6.55;;
14961;SDS011;56489;53.166;10.864;2022-10-31T01:07:21;8.25;;;7.45;;
14961;SDS011;56489;53.166;10.864;2022-10-31T01:09:48;8.90;;;7.50;;
14961;SDS011;56489;53.166;10.864;2022-10-31T01:12:14;9.10;;;6.93;;
14961;SDS011;56489;53.166;10.864;2022-10-31T01:14:44;9.98;;;6.93;;
14961;SDS011;56489;53.166;10.864;2022-10-31T01:17:12;8.82;;;6.35;;
14961;SDS011;56489;53.166;10.864;2022-10-31T01:19:39;6.90;;;6.05;;
14961;SDS011;56489;53.166;10.864;2022-10-31T01:22:06;7.10;;;6.40;;
14961;SDS011;56489;53.166;10.864;2022-10-31T01:24:33;6.78;;;6.18;;
14961;SDS011;56489;53.166;10.864;2022-10-31T01:26:59;7.13;;;6.00;;
14961;SDS011;56489;53.166;10.864;2022-10-31T01:29:26;6.60;;;6.00;;
14961;SDS011;56489;53.166;10.864;2022-10-31T01:31:53;6.47;;;5.88;;
14961;SDS011;56489;53.166;10.864;2022-10-31T01:34:20;5.75;;;5.03;;
14961;SDS011;56489;53.166;10.864;2022-10-31T01:36:46;6.88;;;5.75;;
14961;SDS011;56489;53.166;10.864;2022-10-31T01:39:18;6.95;;;6.10;;
14961;SDS011;56489;53.166;10.864;2022-10-31T01:41:49;7.72;;;6.47;;
14961;SDS011;56489;53.166;10.864;2022-10-31T01:46:52;8.63;;;6.00;;
14961;SDS011;56489;53.166;10.864;2022-10-31T01:51:58;8.80;;;6.60;;
14961;SDS011;56489;53.166;10.864;2022-10-31T01:54:31;9.30;;;6.32;;
14961;SDS011;56489;53.166;10.864;2022-10-31T01:57:02;9.07;;;6.40;;
14961;SDS011;56489;53.166;10.864;2022-10-31T01:59:34;8.02;;;6.60;;
14961;SDS011;56489;53.166;10.864;2022-10-31T02:02:06;8.95;;;6.75;;
14961;SDS011;56489;53.166;10.864;2022-10-31T02:04:33;8.18;;;6.97;;
14961;SDS011;56489;53.166;10.864;2022-10-31T02:07:02;11.18;;;6.75;;
14961;SDS011;56489;53.166;10.864;2022-10-31T02:09:33;7.63;;;6.45;;
14961;SDS011;56489;53.166;10.864;2022-10-31T02:12:02;11.20;;;6.07;;
14961;SDS011;56489;53.166;10.864;2022-10-31T02:14:29;7.57;;;6.05;;
14961;SDS011;56489;53.166;10.864;2022-10-31T02:16:57;8.27;;;6.32;;
14961;SDS011;56489;53.166;10.864;2022-10-31T02:22:15;7.13;;;6.43;;
14961;SDS011;56489;53.166;10.864;2022-10-31T02:25:02;8.38;;;6.78;;
14961;SDS011;56489;53.166;10.864;2022-10-31T02:30:18;7.65;;;6.53;;
14961;SDS011;56489;53.166;10.864;2022-10-31T02:35:38;13.15;;;8.48;;
14961;SDS011;56489;53.166;10.864;2022-10-31T02:44:06;8.70;;;7.43;;
14961;SDS011;56489;53.166;10.864;2022-10-31T02:49:25;9.50;;;7.40;;
14961;SDS011;56489;53.166;10.864;2022-10-31T02:51:56;8.35;;;7.57;;
14961;SDS011;56489;53.166;10.864;2022-10-31T02:54:24;9.90;;;7.70;;
14961;SDS011;56489;53.166;10.864;2022-10-31T02:57:11;8.45;;;7.18;;
14961;SDS011;56489;53.166;10.864;2022-10-31T02:59:42;7.93;;;7.13;;
14961;SDS011;56489;53.166;10.864;2022-10-31T03:02:20;9.23;;;6.38;;
14961;SDS011;56489;53.166;10.864;2022-10-31T03:08:00;7.35;;;6.20;;
14961;SDS011;56489;53.166;10.864;2022-10-31T03:10:40;10.30;;;8.32;;
14961;SDS011;56489;53.166;10.864;2022-10-31T03:13:09;11.35;;;7.85;;
14961;SDS011;56489;53.166;10.864;2022-10-31T03:15:44;10.38;;;8.10;;
14961;SDS011;56489;53.166;10.864;2022-10-31T03:20:50;9.35;;;7.70;;
14961;SDS011;56489;53.166;10.864;2022-10-31T03:23:21;10.00;;;7.80;;
14961;SDS011;56489;53.166;10.864;2022-10-31T03:25:51;12.38;;;8.32;;
14961;SDS011;56489;53.166;10.864;2022-10-31T03:28:23;11.35;;;8.07;;
14961;SDS011;56489;53.166;10.864;2022-10-31T03:30:56;11.32;;;8.63;;
14961;SDS011;56489;53.166;10.864;2022-10-31T03:33:30;10.70;;;8.25;;
14961;SDS011;56489;53.166;10.864;2022-10-31T03:35:59;12.18;;;9.35;;
14961;SDS011;56489;53.166;10.864;2022-10-31T03:38:30;10.55;;;9.40;;
14961;SDS011;56489;53.166;10.864;2022-10-31T03:40:58;9.45;;;8.38;;
14961;SDS011;56489;53.166;10.864;2022-10-31T03:43:30;8.38;;;7.45;;
14961;SDS011;56489;53.166;10.864;2022-10-31T03:46:02;8.20;;;7.40;;
14961;SDS011;56489;53.166;10.864;2022-10-31T03:48:30;9.63;;;8.43;;
14961;SDS011;56489;53.166;10.864;2022-10-31T03:50:59;13.27;;;8.80;;
14961;SDS011;56489;53.166;10.864;2022-10-31T03:53:45;13.45;;;9.88;;
14961;SDS011;56489;53.166;10.864;2022-10-31T03:58:53;19.67;;;13.70;;
14961;SDS011;56489;53.166;10.864;2022-10-31T04:01:31;18.35;;;14.02;;
14961;SDS011;56489;53.166;10.864;2022-10-31T04:04:02;16.83;;;13.48;;
14961;SDS011;56489;53.166;10.864;2022-10-31T04:06:30;11.43;;;10.23;;
14961;SDS011;56489;53.166;10.864;2022-10-31T04:09:00;9.88;;;8.57;;
14961;SDS011;56489;53.166;10.864;2022-10-31T04:11:31;12.25;;;8.52;;
14961;SDS011;56489;53.166;10.864;2022-10-31T04:14:00;11.15;;;8.93;;
14961;SDS011;56489;53.166;10.864;2022-10-31T04:16:30;13.10;;;10.18;;
14961;SDS011;56489;53.166;10.864;2022-10-31T04:18:57;10.85;;;9.15;;
14961;SDS011;56489;53.166;10.864;2022-10-31T04:21:27;19.42;;;12.80;;
14961;SDS011;56489;53.166;10.864;2022-10-31T04:23:56;18.27;;;13.95;;
14961;SDS011;56489;53.166;10.864;2022-10-31T04:26:23;17.35;;;13.95;;
14961;SDS011;56489;53.166;10.864;2022-10-31T04:28:51;15.77;;;12.90;;
14961;SDS011;56489;53.166;10.864;2022-10-31T04:31:17;15.80;;;11.40;;
14961;SDS011;56489;53.166;10.864;2022-10-31T04:33:44;15.98;;;10.65;;
14961;SDS011;56489;53.166;10.864;2022-10-31T04:36:11;17.50;;;12.35;;
14961;SDS011;56489;53.166;10.864;2022-10-31T04:38:38;17.10;;;12.27;;
14961;SDS011;56489;53.166;10.864;2022-10-31T04:41:05;24.17;;;16.30;;
14961;SDS011;56489;53.166;10.864;2022-10-31T04:43:32;22.67;;;15.38;;
14961;SDS011;56489;53.166;10.864;2022-10-31T04:45:59;27.48;;;19.13;;
14961;SDS011;56489;53.166;10.864;2022-10-31T04:48:26;40.85;;;25.17;;
14961;SDS011;56489;53.166;10.864;2022-10-31T04:50:57;38.67;;;26.08;;
14961;SDS011;56489;53.166;10.864;2022-10-31T04:53:25;38.90;;;25.05;;
14961;SDS011;56489;53.166;10.864;2022-10-31T04:55:52;48.00;;;28.42;;
14961;SDS011;56489;53.166;10.864;2022-10-31T04:58:18;37.33;;;22.48;;
14961;SDS011;56489;53.166;10.864;2022-10-31T05:00:45;22.77;;;16.15;;
14961;SDS011;56489;53.166;10.864;2022-10-31T05:03:12;20.23;;;12.85;;
14961;SDS011;56489;53.166;10.864;2022-10-31T05:05:39;16.08;;;11.95;;
14961;SDS011;56489;53.166;10.864;2022-10-31T05:08:05;18.42;;;10.38;;
14961;SDS011;56489;53.166;10.864;2022-10-31T05:10:32;15.65;;;10.50;;
14961;SDS011;56489;53.166;10.864;2022-10-31T05:12:59;16.23;;;10.85;;
14961;SDS011;56489;53.166;10.864;2022-10-31T05:15:29;14.35;;;9.68;;
14961;SDS011;56489;53.166;10.864;2022-10-31T05:17:56;12.90;;;9.65;;
14961;SDS011;56489;53.166;10.864;2022-10-31T05:20:25;15.80;;;10.00;;
14961;SDS011;56489;53.166;10.864;2022-10-31T05:22:54;14.63;;;10.75;;
14961;SDS011;56489;53.166;10.864;2022-10-31T05:25:23;13.30;;;10.05;;
14961;SDS011;56489;53.166;10.864;2022-10-31T05:27:52;18.20;;;12.60;;
14961;SDS011;56489;53.166;10.864;2022-10-31T05:30:21;23.17;;;14.18;;
14961;SDS011;56489;53.166;10.864;2022-10-31T05:32:50;24.50;;;14.25;;
14961;SDS011;56489;53.166;10.864;2022-10-31T05:35:19;24.85;;;14.73;;
14961;SDS011;56489;53.166;10.864;2022-10-31T05:37:51;23.83;;;15.18;;
14961;SDS011;56489;53.166;10.864;2022-10-31T05:40:18;23.85;;;14.98;;
14961;SDS011;56489;53.166;10.864;2022-10-31T05:42:46;25.63;;;15.18;;
14961;SDS011;56489;53.166;10.864;2022-10-31T05:45:15;21.77;;;14.63;;
14961;SDS011;56489;53.166;10.864;2022-10-31T05:47:49;21.92;;;15.70;;
14961;SDS011;56489;53.166;10.864;2022-10-31T05:50:28;21.33;;;14.40;;
14961;SDS011;56489;53.166;10.864;2022-10-31T05:52:58;25.98;;;16.13;;
14961;SDS011;56489;53.166;10.864;2022-10-31T05:55:30;19.60;;;13.55;;
14961;SDS011;56489;53.166;10.864;2022-10-31T05:57:57;17.60;;;12.52;;
14961;SDS011;56489;53.166;10.864;2022-10-31T06:00:25;20.33;;;14.85;;
14961;SDS011;56489;53.166;10.864;2022-10-31T06:02:59;19.58;;;15.02;;
14961;SDS011;56489;53.166;10.864;2022-10-31T06:05:31;24.92;;;17.15;;
14961;SDS011;56489;53.166;10.864;2022-10-31T06:07:58;23.60;;;15.55;;
14961;SDS011;56489;53.166;10.864;2022-10-31T06:10:26;20.02;;;13.98;;
14961;SDS011;56489;53.166;10.864;2022-10-31T06:12:53;21.65;;;15.38;;
14961;SDS011;56489;53.166;10.864;2022-10-31T06:15:20;16.80;;;13.85;;
14961;SDS011;56489;53.166;10.864;2022-10-31T06:18:00;21.17;;;16.83;;
14961;SDS011;56489;53.166;10.864;2022-10-31T06:20:29;34.25;;;19.13;;
14961;SDS011;56489;53.166;10.864;2022-10-31T06:22:56;27.15;;;17.60;;
14961;SDS011;56489;53.166;10.864;2022-10-31T06:25:24;23.67;;;16.27;;
14961;SDS011;56489;53.166;10.864;2022-10-31T06:27:50;24.25;;;16.40;;
14961;SDS011;56489;53.166;10.864;2022-10-31T06:30:17;27.65;;;16.40;;
14961;SDS011;56489;53.166;10.864;2022-10-31T06:32:45;30.90;;;17.83;;
14961;SDS011;56489;53.166;10.864;2022-10-31T06:35:12;34.33;;;18.98;;
14961;SDS011;56489;53.166;10.864;2022-10-31T06:37:39;33.47;;;20.98;;
14961;SDS011;56489;53.166;10.864;2022-10-31T06:40:05;34.85;;;19.67;;
14961;SDS011;56489;53.166;10.864;2022-10-31T06:42:32;31.23;;;19.20;;
14961;SDS011;56489;53.166;10.864;2022-10-31T06:44:59;29.92;;;18.65;;
14961;SDS011;56489;53.166;10.864;2022-10-31T06:47:26;37.40;;;21.80;;
14961;SDS011;56489;53.166;10.864;2022-10-31T06:49:55;39.90;;;22.33;;
14961;SDS011;56489;53.166;10.864;2022-10-31T06:52:22;37.85;;;22.85;;
14961;SDS011;56489;53.166;10.864;2022-10-31T06:54:49;42.03;;;22.33;;
14961;SDS011;56489;53.166;10.864;2022-10-31T06:57:16;47.47;;;23.73;;
14961;SDS011;56489;53.166;10.864;2022-10-31T06:59:42;48.90;;;25.88;;
14961;SDS011;56489;53.166;10.864;2022-10-31T07:02:10;51.88;;;25.65;;
14961;SDS011;56489;53.166;10.864;2022-10-31T07:04:37;45.17;;;21.48;;
14961;SDS011;56489;53.166;10.864;2022-10-31T07:07:04;40.83;;;24.25;;
14961;SDS011;56489;53.166;10.864;2022-10-31T07:09:30;46.78;;;22.70;;
14961;SDS011;56489;53.166;10.864;2022-10-31T07:11:57;56.22;;;27.60;;
14961;SDS011;56489;53.166;10.864;2022-10-31T07:14:24;88.30;;;36.28;;
14961;SDS011;56489;53.166;10.864;2022-10-31T07:16:51;76.50;;;33.72;;
14961;SDS011;56489;53.166;10.864;2022-10-31T07:19:17;80.13;;;33.35;;
14961;SDS011;56489;53.166;10.864;2022-10-31T07:21:44;82.45;;;34.95;;
14961;SDS011;56489;53.166;10.864;2022-10-31T07:24:11;82.53;;;30.35;;
14961;SDS011;56489;53.166;10.864;2022-10-31T07:26:38;85.28;;;30.75;;
14961;SDS011;56489;53.166;10.864;2022-10-31T07:29:05;76.03;;;30.63;;
14961;SDS011;56489;53.166;10.864;2022-10-31T07:31:31;67.10;;;29.17;;
14961;SDS011;56489;53.166;10.864;2022-10-31T07:33:58;59.95;;;26.45;;
14961;SDS011;56489;53.166;10.864;2022-10-31T07:36:24;57.22;;;25.95;;
14961;SDS011;56489;53.166;10.864;2022-10-31T07:38:51;49.65;;;22.63;;
14961;SDS011;56489;53.166;10.864;2022-10-31T07:41:17;65.40;;;29.15;;
14961;SDS011;56489;53.166;10.864;2022-10-31T07:43:45;52.50;;;24.25;;
14961;SDS011;56489;53.166;10.864;2022-10-31T07:46:11;58.10;;;25.00;;
14961;SDS011;56489;53.166;10.864;2022-10-31T07:48:38;48.78;;;23.80;;
14961;SDS011;56489;53.166;10.864;2022-10-31T07:51:05;53.30;;;23.42;;
14961;SDS011;56489;53.166;10.864;2022-10-31T07:53:32;55.75;;;24.52;;
14961;SDS011;56489;53.166;10.864;2022-10-31T07:55:59;51.20;;;22.60;;
14961;SDS011;56489;53.166;10.864;2022-10-31T07:58:26;51.47;;;22.73;;
14961;SDS011;56489;53.166;10.864;2022-10-31T08:00:53;52.15;;;25.63;;
14961;SDS011;56489;53.166;10.864;2022-10-31T08:03:20;39.50;;;20.50;;
14961;SDS011;56489;53.166;10.864;2022-10-31T08:05:47;39.92;;;21.17;;
14961;SDS011;56489;53.166;10.864;2022-10-31T08:08:14;37.53;;;21.02;;
14961;SDS011;56489;53.166;10.864;2022-10-31T08:10:41;30.88;;;17.05;;
14961;SDS011;56489;53.166;10.864;2022-10-31T08:13:09;37.42;;;18.20;;
14961;SDS011;56489;53.166;10.864;2022-10-31T08:15:37;39.42;;;20.65;;
14961;SDS011;56489;53.166;10.864;2022-10-31T08:18:13;41.97;;;21.52;;
14961;SDS011;56489;53.166;10.864;2022-10-31T08:20:41;44.30;;;22.40;;
14961;SDS011;56489;53.166;10.864;2022-10-31T08:23:08;32.63;;;18.35;;
14961;SDS011;56489;53.166;10.864;2022-10-31T08:25:36;40.72;;;20.17;;
14961;SDS011;56489;53.166;10.864;2022-10-31T08:28:04;37.67;;;19.70;;
14961;SDS011;56489;53.166;10.864;2022-10-31T08:30:33;33.38;;;18.50;;
14961;SDS011;56489;53.166;10.864;2022-10-31T08:33:06;30.15;;;17.38;;
14961;SDS011;56489;53.166;10.864;2022-10-31T08:35:38;31.35;;;18.33;;
14961;SDS011;56489;53.166;10.864;2022-10-31T08:38:05;29.77;;;16.13;;
14961;SDS011;56489;53.166;10.864;2022-10-31T08:40:33;31.52;;;16.98;;
14961;SDS011;56489;53.166;10.864;2022-10-31T08:43:08;35.50;;;17.90;;
14961;SDS011;56489;53.166;10.864;2022-10-31T08:45:39;32.38;;;19.58;;
14961;SDS011;56489;53.166;10.864;2022-10-31T08:48:11;33.78;;;18.48;;
14961;SDS011;56489;53.166;10.864;2022-10-31T08:50:39;29.60;;;17.60;;
14961;SDS011;56489;53.166;10.864;2022-10-31T08:53:09;38.72;;;18.23;;
14961;SDS011;56489;53.166;10.864;2022-10-31T08:55:40;27.00;;;15.88;;
14961;SDS011;56489;53.166;10.864;2022-10-31T08:58:12;30.83;;;17.48;;
14961;SDS011;56489;53.166;10.864;2022-10-31T09:00:40;31.35;;;17.90;;
14961;SDS011;56489;53.166;10.864;2022-10-31T09:03:14;28.92;;;17.02;;
14961;SDS011;56489;53.166;10.864;2022-10-31T09:05:43;35.97;;;18.33;;
14961;SDS011;56489;53.166;10.864;2022-10-31T09:08:10;24.60;;;15.18;;
14961;SDS011;56489;53.166;10.864;2022-10-31T09:10:42;28.35;;;16.92;;
14961;SDS011;56489;53.166;10.864;2022-10-31T09:13:14;30.67;;;16.90;;
14961;SDS011;56489;53.166;10.864;2022-10-31T09:15:45;26.60;;;15.23;;
14961;SDS011;56489;53.166;10.864;2022-10-31T09:18:14;22.40;;;13.77;;
14961;SDS011;56489;53.166;10.864;2022-10-31T09:20:42;25.42;;;14.95;;
14961;SDS011;56489;53.166;10.864;2022-10-31T09:23:11;25.80;;;14.32;;
14961;SDS011;56489;53.166;10.864;2022-10-31T09:25:40;25.33;;;14.98;;
14961;SDS011;56489;53.166;10.864;2022-10-31T09:28:13;20.08;;;13.30;;
14961;SDS011;56489;53.166;10.864;2022-10-31T09:30:42;22.67;;;13.77;;
14961;SDS011;56489;53.166;10.864;2022-10-31T09:33:09;24.35;;;14.02;;
14961;SDS011;56489;53.166;10.864;2022-10-31T09:35:37;24.55;;;15.27;;
14961;SDS011;56489;53.166;10.864;2022-10-31T09:38:09;21.65;;;12.95;;
14961;SDS011;56489;53.166;10.864;2022-10-31T09:40:41;25.15;;;12.50;;
14961;SDS011;56489;53.166;10.864;2022-10-31T09:48:31;21.88;;;14.20;;
14961;SDS011;56489;53.166;10.864;2022-10-31T09:51:08;23.48;;;14.73;;
14961;SDS011;56489;53.166;10.864;2022-10-31T09:53:53;20.90;;;14.70;;
14961;SDS011;56489;53.166;10.864;2022-10-31T09:56:28;23.13;;;14.43;;
14961;SDS011;56489;53.166;10.864;2022-10-31T09:58:58;17.52;;;12.45;;
14961;SDS011;56489;53.166;10.864;2022-10-31T10:01:31;21.65;;;13.15;;
14961;SDS011;56489;53.166;10.864;2022-10-31T10:04:26;18.55;;;12.30;;
14961;SDS011;56489;53.166;10.864;2022-10-31T10:06:54;21.45;;;13.13;;
14961;SDS011;56489;53.166;10.864;2022-10-31T10:09:22;19.17;;;12.48;;
14961;SDS011;56489;53.166;10.864;2022-10-31T10:14:34;21.10;;;12.57;;
14961;SDS011;56489;53.166;10.864;2022-10-31T10:20:09;17.13;;;10.40;;
14961;SDS011;56489;53.166;10.864;2022-10-31T10:25:40;21.95;;;14.02;;
14961;SDS011;56489;53.166;10.864;2022-10-31T10:28:10;18.02;;;11.18;;
14961;SDS011;56489;53.166;10.864;2022-10-31T10:30:48;13.15;;;9.80;;
14961;SDS011;56489;53.166;10.864;2022-10-31T10:33:22;18.38;;;11.95;;
14961;SDS011;56489;53.166;10.864;2022-10-31T10:36:00;14.50;;;10.13;;
14961;SDS011;56489;53.166;10.864;2022-10-31T10:38:39;14.32;;;10.02;;
14961;SDS011;56489;53.166;10.864;2022-10-31T10:41:21;14.55;;;10.23;;
14961;SDS011;56489;53.166;10.864;2022-10-31T10:43:50;17.60;;;11.00;;
14961;SDS011;56489;53.166;10.864;2022-10-31T10:49:15;18.77;;;13.20;;
14961;SDS011;56489;53.166;10.864;2022-10-31T10:51:44;18.17;;;11.70;;
14961;SDS011;56489;53.166;10.864;2022-10-31T10:58:06;15.52;;;10.23;;
14961;SDS011;56489;53.166;10.864;2022-10-31T11:03:16;12.23;;;8.68;;
14961;SDS011;56489;53.166;10.864;2022-10-31T11:08:26;15.40;;;9.77;;
14961;SDS011;56489;53.166;10.864;2022-10-31T11:11:02;13.40;;;9.00;;
14961;SDS011;56489;53.166;10.864;2022-10-31T11:13:30;13.48;;;9.90;;
14961;SDS011;56489;53.166;10.864;2022-10-31T11:16:00;15.48;;;11.23;;
14961;SDS011;56489;53.166;10.864;2022-10-31T11:18:31;14.23;;;9.68;;
14961;SDS011;56489;53.166;10.864;2022-10-31T11:21:01;16.77;;;11.73;;
14961;SDS011;56489;53.166;10.864;2022-10-31T11:23:30;12.88;;;9.60;;
14961;SDS011;56489;53.166;10.864;2022-10-31T11:28:25;13.23;;;9.35;;
14961;SDS011;56489;53.166;10.864;2022-10-31T11:30:56;12.70;;;9.27;;
14961;SDS011;56489;53.166;10.864;2022-10-31T11:35:59;11.88;;;9.38;;
14961;SDS011;56489;53.166;10.864;2022-10-31T11:38:32;12.10;;;8.38;;
14961;SDS011;56489;53.166;10.864;2022-10-31T11:41:10;12.02;;;8.73;;
14961;SDS011;56489;53.166;10.864;2022-10-31T11:43:47;12.25;;;8.40;;
14961;SDS011;56489;53.166;10.864;2022-10-31T11:46:22;9.95;;;8.60;;
14961;SDS011;56489;53.166;10.864;2022-10-31T11:49:00;13.27;;;9.35;;
14961;SDS011;56489;53.166;10.864;2022-10-31T11:51:31;13.85;;;9.90;;
14961;SDS011;56489;53.166;10.864;2022-10-31T11:54:01;12.77;;;8.90;;
14961;SDS011;56489;53.166;10.864;2022-10-31T11:56:39;14.68;;;10.43;;
14961;SDS011;56489;53.166;10.864;2022-10-31T11:59:23;13.23;;;9.20;;
14961;SDS011;56489;53.166;10.864;2022-10-31T12:01:53;13.65;;;9.65;;
14961;SDS011;56489;53.166;10.864;2022-10-31T12:04:29;15.52;;;11.63;;
14961;SDS011;56489;53.166;10.864;2022-10-31T12:07:10;14.07;;;10.10;;
14961;SDS011;56489;53.166;10.864;2022-10-31T12:09:37;14.30;;;9.90;;
14961;SDS011;56489;53.166;10.864;2022-10-31T12:17:32;12.80;;;8.88;;
14961;SDS011;56489;53.166;10.864;2022-10-31T12:20:34;11.63;;;8.57;;
14961;SDS011;56489;53.166;10.864;2022-10-31T12:26:11;11.40;;;9.48;;
14961;SDS011;56489;53.166;10.864;2022-10-31T12:34:39;14.65;;;10.75;;
14961;SDS011;56489;53.166;10.864;2022-10-31T12:46:24;11.52;;;8.55;;
14961;SDS011;56489;53.166;10.864;2022-10-31T12:49:22;11.75;;;8.85;;
14961;SDS011;56489;53.166;10.864;2022-10-31T12:52:19;10.23;;;8.48;;
14961;SDS011;56489;53.166;10.864;2022-10-31T12:57:49;9.00;;;7.30;;
14961;SDS011;56489;53.166;10.864;2022-10-31T13:00:19;7.82;;;6.43;;
14961;SDS011;56489;53.166;10.864;2022-10-31T13:02:54;8.07;;;6.85;;
14961;SDS011;56489;53.166;10.864;2022-10-31T13:05:33;11.38;;;6.93;;
14961;SDS011;56489;53.166;10.864;2022-10-31T13:08:05;7.40;;;6.32;;
14961;SDS011;56489;53.166;10.864;2022-10-31T13:16:15;9.13;;;7.53;;
14961;SDS011;56489;53.166;10.864;2022-10-31T13:21:19;10.93;;;6.95;;
14961;SDS011;56489;53.166;10.864;2022-10-31T13:23:51;8.38;;;6.40;;
14961;SDS011;56489;53.166;10.864;2022-10-31T13:26:33;8.20;;;6.00;;
14961;SDS011;56489;53.166;10.864;2022-10-31T13:31:54;6.78;;;5.55;;
14961;SDS011;56489;53.166;10.864;2022-10-31T13:37:05;8.98;;;6.75;;
14961;SDS011;56489;53.166;10.864;2022-10-31T13:45:50;5.85;;;5.20;;
14961;SDS011;56489;53.166;10.864;2022-10-31T13:48:20;7.18;;;6.32;;
14961;SDS011;56489;53.166;10.864;2022-10-31T13:51:06;7.05;;;5.68;;
14961;SDS011;56489;53.166;10.864;2022-10-31T13:53:38;7.60;;;5.05;;
14961;SDS011;56489;53.166;10.864;2022-10-31T13:58:34;5.60;;;4.15;;
14961;SDS011;56489;53.166;10.864;2022-10-31T14:01:10;6.95;;;5.03;;
14961;SDS011;56489;53.166;10.864;2022-10-31T14:04:06;6.80;;;4.43;;
14961;SDS011;56489;53.166;10.864;2022-10-31T14:06:52;5.18;;;4.10;;
14961;SDS011;56489;53.166;10.864;2022-10-31T14:09:37;5.00;;;4.10;;
14961;SDS011;56489;53.166;10.864;2022-10-31T14:12:26;7.53;;;5.22;;
14961;SDS011;56489;53.166;10.864;2022-10-31T14:15:04;7.57;;;5.75;;
14961;SDS011;56489;53.166;10.864;2022-10-31T14:20:40;7.05;;;5.18;;
14961;SDS011;56489;53.166;10.864;2022-10-31T14:26:06;7.05;;;5.28;;
14961;SDS011;56489;53.166;10.864;2022-10-31T14:28:36;5.47;;;4.93;;
14961;SDS011;56489;53.166;10.864;2022-10-31T14:31:21;6.60;;;5.00;;
14961;SDS011;56489;53.166;10.864;2022-10-31T14:34:03;7.38;;;5.60;;
14961;SDS011;56489;53.166;10.864;2022-10-31T14:36:40;9.20;;;6.32;;
14961;SDS011;56489;53.166;10.864;2022-10-31T14:39:32;6.90;;;5.43;;
14961;SDS011;56489;53.166;10.864;2022-10-31T14:45:15;6.57;;;5.88;;
14961;SDS011;56489;53.166;10.864;2022-10-31T14:50:57;8.32;;;6.68;;
14961;SDS011;56489;53.166;10.864;2022-10-31T14:53:27;10.05;;;6.35;;
14961;SDS011;56489;53.166;10.864;2022-10-31T14:56:29;7.57;;;5.68;;
14961;SDS011;56489;53.166;10.864;2022-10-31T14:59:06;7.68;;;6.15;;
14961;SDS011;56489;53.166;10.864;2022-10-31T15:01:37;8.32;;;6.40;;
14961;SDS011;56489;53.166;10.864;2022-10-31T15:04:18;9.18;;;6.40;;
14961;SDS011;56489;53.166;10.864;2022-10-31T15:09:34;11.02;;;8.43;;
14961;SDS011;56489;53.166;10.864;2022-10-31T15:14:49;14.60;;;11.45;;
14961;SDS011;56489;53.166;10.864;2022-10-31T15:17:16;12.20;;;10.20;;
14961;SDS011;56489;53.166;10.864;2022-10-31T15:19:43;11.13;;;8.13;;
14961;SDS011;56489;53.166;10.864;2022-10-31T15:22:13;13.15;;;9.50;;
14961;SDS011;56489;53.166;10.864;2022-10-31T15:24:43;12.65;;;8.60;;
14961;SDS011;56489;53.166;10.864;2022-10-31T15:27:14;13.32;;;8.70;;
14961;SDS011;56489;53.166;10.864;2022-10-31T15:32:24;13.05;;;9.55;;
14961;SDS011;56489;53.166;10.864;2022-10-31T15:34:52;12.70;;;9.32;;
14961;SDS011;56489;53.166;10.864;2022-10-31T15:37:22;12.98;;;9.93;;
14961;SDS011;56489;53.166;10.864;2022-10-31T15:39:51;15.95;;;11.05;;
14961;SDS011;56489;53.166;10.864;2022-10-31T15:42:19;17.92;;;11.45;;
14961;SDS011;56489;53.166;10.864;2022-10-31T15:44:48;23.48;;;12.05;;
14961;SDS011;56489;53.166;10.864;2022-10-31T15:47:19;17.75;;;12.98;;
14961;SDS011;56489;53.166;10.864;2022-10-31T15:49:49;20.73;;;13.52;;
14961;SDS011;56489;53.166;10.864;2022-10-31T15:52:23;17.98;;;13.02;;
14961;SDS011;56489;53.166;10.864;2022-10-31T15:55:03;25.65;;;17.08;;
14961;SDS011;56489;53.166;10.864;2022-10-31T15:57:32;27.90;;;19.20;;
14961;SDS011;56489;53.166;10.864;2022-10-31T15:59:59;22.40;;;14.80;;
14961;SDS011;56489;53.166;10.864;2022-10-31T16:02:27;24.63;;;15.50;;
14961;SDS011;56489;53.166;10.864;2022-10-31T16:04:55;23.85;;;15.35;;
14961;SDS011;56489;53.166;10.864;2022-10-31T16:07:24;27.83;;;17.23;;
14961;SDS011;56489;53.166;10.864;2022-10-31T16:12:30;30.35;;;17.17;;
14961;SDS011;56489;53.166;10.864;2022-10-31T16:15:03;28.92;;;17.02;;
14961;SDS011;56489;53.166;10.864;2022-10-31T16:17:31;26.67;;;16.27;;
14961;SDS011;56489;53.166;10.864;2022-10-31T16:19:59;25.73;;;15.88;;
14961;SDS011;56489;53.166;10.864;2022-10-31T16:22:31;29.85;;;18.25;;
14961;SDS011;56489;53.166;10.864;2022-10-31T16:25:05;28.77;;;17.33;;
14961;SDS011;56489;53.166;10.864;2022-10-31T16:27:40;30.23;;;16.50;;
14961;SDS011;56489;53.166;10.864;2022-10-31T16:30:30;28.75;;;16.67;;
14961;SDS011;56489;53.166;10.864;2022-10-31T16:39:00;37.55;;;19.00;;
14961;SDS011;56489;53.166;10.864;2022-10-31T16:41:27;36.90;;;21.67;;
14961;SDS011;56489;53.166;10.864;2022-10-31T16:43:54;33.40;;;19.00;;
14961;SDS011;56489;53.166;10.864;2022-10-31T16:46:22;35.53;;;17.98;;
14961;SDS011;56489;53.166;10.864;2022-10-31T16:48:51;31.65;;;17.23;;
14961;SDS011;56489;53.166;10.864;2022-10-31T16:51:18;32.13;;;17.42;;
14961;SDS011;56489;53.166;10.864;2022-10-31T16:53:45;35.13;;;18.50;;
14961;SDS011;56489;53.166;10.864;2022-10-31T16:56:15;30.98;;;18.17;;
14961;SDS011;56489;53.166;10.864;2022-10-31T16:58:44;27.30;;;15.82;;